Unlu-5 — TCON5 — position and weather

sailwx.info

Track history (hours):
 
Tides and Currents Weather Stations Pressure Air Temp Water Temp Dewpoint Dewpoint Depression Visibility Wind Speed Wind Dir Waves Ship Positions

Unlu-5

Last reported at 2017-Apr-26 17:29 UTC. Time now 2017-Apr-26 17:41 UTC.
Position N 45°36' E 013°19'.

Length 99 m; draft 5.8 m.

Type: Ship. MMSI: 271000854.

Date/timePositionNaut miles runAvg speedWind from/ knotsBaromVisibWave heightAir tempDewpointWater temp
2017-Apr-26 17:29N 45°36' E 013°19'0 0.0
2017-Apr-26 16:59N 45°36' E 013°19'0 0.0
2017-Apr-26 16:29N 45°36' E 013°19'0 0.0
2017-Apr-26 15:59N 45°36' E 013°19'0 0.0
2017-Apr-26 15:26N 45°36' E 013°19'0 0.9
2017-Apr-26 15:00N 45°36' E 013°19'3 6.3
2017-Apr-26 14:30N 45°33' E 013°16'8 8.4
2017-Apr-26 13:30N 45°25' E 013°14'4 7.9
2017-Apr-26 13:00N 45°21' E 013°13'4 8.5
2017-Apr-26 12:30N 45°17' E 013°13'4 8.5
2017-Apr-26 12:00N 45°13' E 013°14'4 8.3
2017-Apr-26 11:30N 45°08' E 013°15'4 8.3
2017-Apr-26 11:00N 45°04' E 013°16'4 8.4
2017-Apr-26 10:30N 45°01' E 013°19'4 8.2
2017-Apr-26 10:00N 44°57' E 013°22'4 8.2
2017-Apr-26 09:31N 44°54' E 013°25'4 8.1
2017-Apr-26 09:00N 44°50' E 013°28'4 8.2
2017-Apr-26 08:30N 44°47' E 013°31'4 8.3
2017-Apr-26 08:00N 44°43' E 013°34'4 8.3
2017-Apr-26 07:30N 44°40' E 013°37'4 8.4
2017-Apr-26 07:00N 44°36' E 013°41'4 8.3
2017-Apr-26 06:30N 44°33' E 013°44'4 8.4
2017-Apr-26 06:00N 44°29' E 013°47'4 8.3
2017-Apr-26 05:30N 44°26' E 013°50'4 8.2
2017-Apr-26 05:00N 44°23' E 013°54'5 8.2
2017-Apr-26 04:27N 44°19' E 013°57'4 8.1
2017-Apr-26 04:00N 44°16' E 013°60'4 8.1
2017-Apr-26 03:30N 44°12' E 014°03'  
2017-Apr-20 13:55N 32°48' E 028°11'4 8.1
2017-Apr-20 13:23N 32°44' E 028°14'30 8.3
2017-Apr-20 09:46N 32°22' E 028°37'3 8.4
2017-Apr-20 09:28N 32°20' E 028°40'92 6.5
2017-Apr-19 19:18N 31°08' E 029°48'0 0.0
2017-Apr-19 19:00N 31°08' E 029°48'  
Track history (hours):
 
Tides and Currents Weather Stations Pressure Air Temp Water Temp Dewpoint Dewpoint Depression Visibility Wind Speed Wind Dir Waves Ship Positions

Unlu-5

Last reported at 2017-Apr-26 17:29 UTC. Time now 2017-Apr-26 17:41 UTC.
Position N 45°36' E 013°19'.

Length 99 m; draft 5.8 m.

Type: Ship. MMSI: 271000854.

Date/timePositionNaut miles runAvg speedWind from/ knotsBaromVisibWave heightAir tempDewpointWater temp
2017-Apr-26 17:29N 45°36' E 013°19'0 0.0
2017-Apr-26 16:59N 45°36' E 013°19'0 0.0
2017-Apr-26 16:29N 45°36' E 013°19'0 0.0
2017-Apr-26 15:59N 45°36' E 013°19'0 0.0
2017-Apr-26 15:26N 45°36' E 013°19'0 0.9
2017-Apr-26 15:00N 45°36' E 013°19'3 6.3
2017-Apr-26 14:30N 45°33' E 013°16'8 8.4
2017-Apr-26 13:30N 45°25' E 013°14'4 7.9
2017-Apr-26 13:00N 45°21' E 013°13'4 8.5
2017-Apr-26 12:30N 45°17' E 013°13'4 8.5
2017-Apr-26 12:00N 45°13' E 013°14'4 8.3
2017-Apr-26 11:30N 45°08' E 013°15'4 8.3
2017-Apr-26 11:00N 45°04' E 013°16'4 8.4
2017-Apr-26 10:30N 45°01' E 013°19'4 8.2
2017-Apr-26 10:00N 44°57' E 013°22'4 8.2
2017-Apr-26 09:31N 44°54' E 013°25'4 8.1
2017-Apr-26 09:00N 44°50' E 013°28'4 8.2
2017-Apr-26 08:30N 44°47' E 013°31'4 8.3
2017-Apr-26 08:00N 44°43' E 013°34'4 8.3
2017-Apr-26 07:30N 44°40' E 013°37'4 8.4
2017-Apr-26 07:00N 44°36' E 013°41'4 8.3
2017-Apr-26 06:30N 44°33' E 013°44'4 8.4
2017-Apr-26 06:00N 44°29' E 013°47'4 8.3
2017-Apr-26 05:30N 44°26' E 013°50'4 8.2
2017-Apr-26 05:00N 44°23' E 013°54'5 8.2
2017-Apr-26 04:27N 44°19' E 013°57'4 8.1
2017-Apr-26 04:00N 44°16' E 013°60'4 8.1
2017-Apr-26 03:30N 44°12' E 014°03'  
2017-Apr-20 13:55N 32°48' E 028°11'4 8.1
2017-Apr-20 13:23N 32°44' E 028°14'30 8.3
2017-Apr-20 09:46N 32°22' E 028°37'3 8.4
2017-Apr-20 09:28N 32°20' E 028°40'92 6.5
2017-Apr-19 19:18N 31°08' E 029°48'0 0.0
2017-Apr-19 19:00N 31°08' E 029°48'  

Dump ship's entire track history